createdAt,value
2019-04-23T00:01:59.789Z,101340.36
2019-04-23T00:04:05.718Z,101337.23
2019-04-23T00:06:18.997Z,101338.73
2019-04-23T00:08:26.052Z,101342.96
2019-04-23T00:10:51.528Z,101337.34
2019-04-23T00:15:04.893Z,101335.30
2019-04-23T00:17:11.505Z,101333.81
2019-04-23T00:19:15.276Z,101336.22
2019-04-23T00:21:42.987Z,101330.80
2019-04-23T00:23:59.545Z,101336.30
2019-04-23T00:26:13.734Z,101338.24
2019-04-23T00:28:31.822Z,101330.73
2019-04-23T00:30:36.278Z,101333.67
2019-04-23T00:32:40.845Z,101340.18
2019-04-23T00:34:55.895Z,101336.23
2019-04-23T00:37:01.613Z,101347.58
2019-04-23T00:39:10.315Z,101349.44
2019-04-23T00:41:16.199Z,101342.86
2019-04-23T00:43:30.308Z,101348.73
2019-04-23T00:45:39.823Z,101344.91
2019-04-23T00:47:45.041Z,101344.71
2019-04-23T00:50:08.611Z,101340.97
2019-04-23T00:52:09.373Z,101339.88
2019-04-23T00:54:20.712Z,101343.52
2019-04-23T00:56:42.076Z,101340.25
2019-04-23T00:58:36.629Z,101344.35
2019-04-23T01:00:47.315Z,101347.34
2019-04-23T01:02:57.318Z,101335.49
2019-04-23T01:07:12.814Z,101334.68
2019-04-23T01:09:22.680Z,101336.00
2019-04-23T01:11:46.570Z,101333.33
2019-04-23T01:13:43.184Z,101333.78
2019-04-23T01:15:53.970Z,101336.64
2019-04-23T01:18:02.262Z,101333.23
2019-04-23T01:20:15.713Z,101329.05
2019-04-23T01:22:04.214Z,101334.98
2019-04-23T01:24:34.347Z,101329.75
2019-04-23T01:27:39.319Z,101324.45
2019-04-23T01:29:37.824Z,101334.34
2019-04-23T01:31:41.272Z,101332.68
2019-04-23T01:33:51.450Z,101326.56
2019-04-23T01:36:09.627Z,101332.48
2019-04-23T01:38:04.787Z,101329.92
2019-04-23T01:40:24.006Z,101325.97
2019-04-23T01:42:39.382Z,101327.22
2019-04-23T01:44:42.358Z,101320.14
2019-04-23T01:46:49.467Z,101321.84
2019-04-23T01:48:58.656Z,101318.70
2019-04-23T01:53:23.279Z,101323.06
2019-04-23T01:55:27.993Z,101319.19
2019-04-23T01:57:40.901Z,101314.67
2019-04-23T01:59:50.920Z,101315.60
2019-04-23T02:06:14.694Z,101305.41
2019-04-23T02:08:20.872Z,101299.47
2019-04-23T02:10:39.492Z,101308.59
2019-04-23T02:12:47.730Z,101304.05
2019-04-23T02:15:00.219Z,101304.59
2019-04-23T02:17:00.169Z,101303.20
2019-04-23T02:23:39.601Z,101300.04
2019-04-23T02:28:07.560Z,101298.94
2019-04-23T02:32:19.510Z,101300.29
2019-04-23T02:34:50.440Z,101290.41
2019-04-23T02:36:54.523Z,101291.16
2019-04-23T02:41:05.274Z,101294.60
2019-04-23T02:45:16.999Z,101293.39
2019-04-23T02:49:44.190Z,101287.39
2019-04-23T02:58:18.656Z,101292.65
2019-04-23T03:00:28.352Z,101299.58
2019-04-23T03:04:55.509Z,101293.28
2019-04-23T03:06:56.370Z,101292.29
2019-04-23T03:09:00.765Z,101285.30
2019-04-23T03:11:23.450Z,101285.97
2019-04-23T03:16:00.753Z,101289.16
2019-04-23T03:18:40.075Z,101288.25
2019-04-23T03:21:19.624Z,101298.04
2019-04-23T03:23:46.703Z,101294.98
2019-04-23T03:38:47.095Z,101289.41
2019-04-23T03:40:45.642Z,101291.50
2019-04-23T03:43:01.320Z,101294.63
2019-04-23T03:45:07.547Z,101288.63
2019-04-23T03:47:18.459Z,101287.10
2019-04-23T03:49:20.630Z,101288.52
2019-04-23T03:51:33.783Z,101292.67
2019-04-23T03:54:20.922Z,101291.68
2019-04-23T03:58:30.649Z,101295.55
2019-04-23T04:00:37.218Z,101292.86
2019-04-23T04:04:44.627Z,101290.69
2019-04-23T04:09:26.035Z,101287.25
2019-04-23T04:11:19.245Z,101283.66
2019-04-23T04:18:03.957Z,101282.63
2019-04-23T04:22:21.721Z,101285.27
2019-04-23T04:26:37.807Z,101289.38
2019-04-23T04:35:16.169Z,101286.31
2019-04-23T04:39:26.617Z,101284.70
2019-04-23T04:41:40.549Z,101284.52
2019-04-23T04:43:50.692Z,101286.38
2019-04-23T04:46:12.781Z,101277.67
2019-04-23T04:47:59.075Z,101285.95
2019-04-23T04:50:06.507Z,101286.45
2019-04-23T04:54:22.663Z,101283.41
2019-04-23T04:58:57.858Z,101284.58
2019-04-23T05:01:07.628Z,101286.41
2019-04-23T05:06:01.874Z,101287.02
2019-04-23T05:09:52.156Z,101297.61
2019-04-23T05:12:03.646Z,101281.09
2019-04-23T05:14:00.044Z,101272.56
2019-04-23T05:16:07.724Z,101280.55
2019-04-23T05:20:37.396Z,101268.91
2019-04-23T05:22:49.330Z,101283.31
2019-04-23T05:24:51.465Z,101273.66
2019-04-23T05:29:19.971Z,101278.48
2019-04-23T05:33:28.745Z,101269.52
2019-04-23T05:36:07.153Z,101269.30
2019-04-23T05:40:09.898Z,101270.86
2019-04-23T05:42:11.210Z,101263.66
2019-04-23T05:44:21.574Z,101262.58
2019-04-23T05:46:33.704Z,101267.36
2019-04-23T05:48:42.017Z,101259.23
2019-04-23T05:52:59.058Z,101255.69
2019-04-23T05:57:14.297Z,101261.09
2019-04-23T05:59:23.234Z,101253.39
2019-04-23T06:03:48.946Z,101251.81
2019-04-23T06:06:08.118Z,101252.19
2019-04-23T06:08:03.067Z,101249.41
2019-04-23T06:10:13.442Z,101247.81
2019-04-23T06:12:20.045Z,101239.84
2019-04-23T06:14:32.859Z,101248.17
2019-04-23T06:17:06.298Z,101249.17
2019-04-23T06:18:59.261Z,101247.89
2019-04-23T06:21:02.609Z,101248.49
2019-04-23T06:23:20.930Z,101242.28
2019-04-23T06:27:32.340Z,101246.07
2019-04-23T06:29:44.665Z,101249.45
2019-04-23T06:31:52.614Z,101250.83
2019-04-23T06:34:03.395Z,101243.03
2019-04-23T06:36:12.402Z,101245.47
2019-04-23T06:40:26.593Z,101243.06
2019-04-23T06:42:54.062Z,101229.52
2019-04-23T06:45:01.004Z,101233.86
2019-04-23T06:47:06.965Z,101230.53
2019-04-23T06:49:27.083Z,101234.03
2019-04-23T06:51:34.936Z,101223.36
2019-04-23T06:53:35.947Z,101232.16
2019-04-23T06:55:49.597Z,101229.42
2019-04-23T06:58:10.554Z,101234.72
2019-04-23T07:00:07.916Z,101223.56
2019-04-23T07:02:33.821Z,101218.44
2019-04-23T07:06:38.331Z,101215.48
2019-04-23T07:10:59.165Z,101227.63
2019-04-23T07:13:14.716Z,101207.53
2019-04-23T07:15:32.168Z,101217.30
2019-04-23T07:17:24.679Z,101210.17
2019-04-23T07:19:37.446Z,101217.11
2019-04-23T07:21:43.647Z,101210.52
2019-04-23T07:23:59.176Z,101206.19
2019-04-23T07:26:21.287Z,101204.02
2019-04-23T07:28:20.789Z,101211.19
2019-04-23T07:30:38.352Z,101205.19
2019-04-23T07:32:36.249Z,101209.81
2019-04-23T07:34:49.488Z,101196.91
2019-04-23T07:36:55.762Z,101215.38
2019-04-23T07:39:43.084Z,101209.61
2019-04-23T07:41:56.024Z,101201.14
2019-04-23T07:47:11.728Z,101221.03
2019-04-23T07:49:06.739Z,101201.39
2019-04-23T07:51:14.208Z,101203.09
2019-04-23T07:53:22.904Z,101199.42
2019-04-23T07:55:58.946Z,101197.81
2019-04-23T07:57:49.602Z,101201.81
2019-04-23T08:02:17.211Z,101201.34
2019-04-23T08:04:16.532Z,101208.01
2019-04-23T08:06:23.417Z,101196.41
2019-04-23T08:08:30.193Z,101210.35
2019-04-23T08:11:12.458Z,101195.16
2019-04-23T08:13:05.982Z,101207.88
2019-04-23T08:15:13.305Z,101194.13
2019-04-23T08:17:16.225Z,101199.23
2019-04-23T08:19:33.109Z,101180.17
2019-04-23T08:21:32.191Z,101188.05
2019-04-23T08:26:33.634Z,101176.30
2019-04-23T08:28:48.377Z,101186.91
2019-04-23T08:30:56.785Z,101185.36
2019-04-23T08:33:09.100Z,101179.11
2019-04-23T08:35:06.449Z,101167.22
2019-04-23T08:37:25.325Z,101191.03
2019-04-23T08:39:41.847Z,101196.97
2019-04-23T08:42:01.341Z,101182.92
2019-04-23T08:43:57.221Z,101180.35
2019-04-23T08:46:33.525Z,101183.38
2019-04-23T08:48:32.849Z,101185.05
2019-04-23T08:50:44.278Z,101182.84
2019-04-23T08:53:15.014Z,101179.11
2019-04-23T08:57:14.506Z,101176.84
2019-04-23T08:59:35.065Z,101180.27
2019-04-23T09:01:43.560Z,101174.27
2019-04-23T09:03:39.159Z,101187.30
2019-04-23T09:12:28.344Z,101188.31
2019-04-23T09:14:31.522Z,101163.31
2019-04-23T09:16:52.849Z,101155.37
2019-04-23T09:19:04.578Z,101165.40
2019-04-23T09:21:10.560Z,101149.16
2019-04-23T09:23:20.836Z,101154.14
2019-04-23T09:29:53.602Z,101162.65
2019-04-23T09:34:38.731Z,101161.22
2019-04-23T09:37:08.206Z,101153.47
2019-04-23T09:39:28.960Z,101156.89
2019-04-23T09:41:51.794Z,101167.55
2019-04-23T09:47:00.399Z,101150.34
2019-04-23T09:49:14.962Z,101154.84
2019-04-23T09:51:17.622Z,101144.70
2019-04-23T10:07:17.985Z,101131.09
2019-04-23T10:09:14.566Z,101126.74
2019-04-23T10:23:29.555Z,101120.82
2019-04-23T10:25:38.462Z,101122.72
2019-04-23T10:27:53.274Z,101140.52
2019-04-23T10:29:57.085Z,101130.88
2019-04-23T10:32:05.259Z,101116.02
2019-04-23T10:34:14.818Z,101118.30
2019-04-23T10:36:25.886Z,101123.33
2019-04-23T10:38:34.639Z,101116.01
2019-04-23T10:40:47.873Z,101119.67
2019-04-23T10:42:54.359Z,101116.81
2019-04-23T10:45:35.190Z,101116.20
2019-04-23T10:48:32.664Z,101111.47
2019-04-23T10:50:46.219Z,101118.31
2019-04-23T10:52:53.767Z,101118.09
2019-04-23T10:54:59.382Z,101114.39
2019-04-23T10:57:14.826Z,101115.59
2019-04-23T11:01:52.952Z,101113.35
2019-04-23T11:04:12.011Z,101109.56
2019-04-23T11:06:16.535Z,101110.16
2019-04-23T11:08:18.948Z,101092.92
2019-04-23T11:10:28.675Z,101099.53
2019-04-23T11:12:46.188Z,101118.22
2019-04-23T11:17:35.473Z,101114.19
2019-04-23T11:19:44.006Z,101102.52
2019-04-23T11:21:40.741Z,101091.44
2019-04-23T11:24:02.555Z,101101.53
2019-04-23T11:26:06.839Z,101095.95
2019-04-23T11:32:46.668Z,101095.14
2019-04-23T11:39:16.477Z,101088.03
2019-04-23T11:41:20.746Z,101090.24
2019-04-23T11:43:32.956Z,101087.20
2019-04-23T11:45:38.781Z,101082.12
2019-04-23T11:48:14.219Z,101086.64
2019-04-23T11:50:01.514Z,101083.70
2019-04-23T11:52:18.895Z,101088.06
2019-04-23T11:54:12.107Z,101083.23
2019-04-23T11:56:44.762Z,101088.83
2019-04-23T11:58:33.283Z,101076.66
2019-04-23T12:00:56.222Z,101078.60
2019-04-23T12:03:07.605Z,101088.25
2019-04-23T12:06:07.362Z,101091.00
2019-04-23T12:08:16.966Z,101073.98
2019-04-23T12:10:29.237Z,101074.59
2019-04-23T12:12:33.334Z,101067.66
2019-04-23T12:15:03.514Z,101062.42
2019-04-23T12:17:18.646Z,101060.37
2019-04-23T12:21:37.365Z,101064.34
2019-04-23T12:23:48.450Z,101052.57
2019-04-23T12:25:52.783Z,101049.93
2019-04-23T12:27:59.568Z,101065.50
2019-04-23T12:32:47.879Z,101064.50
2019-04-23T12:34:46.834Z,101061.55
2019-04-23T12:36:50.929Z,101049.17
2019-04-23T12:39:04.622Z,101048.66
2019-04-23T12:41:12.915Z,101044.02
2019-04-23T12:43:19.133Z,101037.23
2019-04-23T12:45:43.983Z,101052.55
2019-04-23T12:47:51.929Z,101039.64
2019-04-23T12:52:12.093Z,101027.94
2019-04-23T12:54:35.316Z,101038.61
2019-04-23T12:56:41.900Z,101024.80
2019-04-23T12:58:27.857Z,101021.56
2019-04-23T13:00:38.856Z,101022.63
2019-04-23T13:05:23.861Z,101030.63
2019-04-23T13:07:17.902Z,101007.56
2019-04-23T13:11:34.826Z,101014.75
2019-04-23T13:13:50.283Z,101026.66
2019-04-23T13:15:55.219Z,101005.16
2019-04-23T13:18:03.319Z,100995.80
2019-04-23T13:20:19.995Z,100997.73
2019-04-23T13:22:30.722Z,101003.20
2019-04-23T13:24:53.926Z,100977.17
2019-04-23T13:27:06.112Z,100994.50
2019-04-23T13:29:23.755Z,100986.05
2019-04-23T13:31:14.800Z,100982.87
2019-04-23T13:40:01.347Z,100976.76
2019-04-23T13:42:25.105Z,100983.52
2019-04-23T13:44:27.645Z,100971.14
2019-04-23T13:46:32.447Z,100987.44
2019-04-23T13:48:35.971Z,100966.84
2019-04-23T13:50:59.698Z,100976.22
2019-04-23T13:53:28.760Z,100967.47
2019-04-23T13:57:56.018Z,100966.23
2019-04-23T13:59:38.955Z,100975.89
2019-04-23T14:01:54.440Z,100967.00
2019-04-23T14:03:48.248Z,100959.10
2019-04-23T14:10:46.630Z,100948.50
2019-04-23T14:13:08.819Z,100949.61
2019-04-23T14:17:26.812Z,100952.41
2019-04-23T14:19:16.544Z,100963.88
2019-04-23T14:21:34.521Z,100955.28
2019-04-23T14:28:16.007Z,100935.79
2019-04-23T14:32:22.347Z,100931.33
2019-04-23T14:34:40.839Z,100921.53
2019-04-23T14:36:42.562Z,100925.70
2019-04-23T14:38:52.774Z,100917.10
2019-04-23T14:41:09.590Z,100918.78
2019-04-23T14:43:25.901Z,100914.78
2019-04-23T14:45:44.231Z,100917.23
2019-04-23T14:47:48.831Z,100912.98
2019-04-23T14:50:28.172Z,100915.61
2019-04-23T14:52:21.902Z,100911.30
2019-04-23T14:55:06.028Z,100913.33
2019-04-23T14:56:42.044Z,100912.21
2019-04-23T15:01:16.059Z,100905.64
2019-04-23T15:03:25.210Z,100901.98
2019-04-23T15:05:17.551Z,100908.52
2019-04-23T15:07:28.521Z,100895.64
2019-04-23T15:09:42.984Z,100897.59
2019-04-23T15:16:17.134Z,100908.05
2019-04-23T15:21:19.046Z,100895.52
2019-04-23T15:23:25.699Z,100900.52
2019-04-23T15:28:03.670Z,100888.72
2019-04-23T15:29:27.426Z,100889.97
2019-04-23T15:36:25.366Z,100895.91
2019-04-23T15:40:27.873Z,100887.90
2019-04-23T15:42:45.233Z,100898.37
2019-04-23T15:44:48.817Z,100893.88
2019-04-23T15:51:30.896Z,100899.82
2019-04-23T15:53:21.117Z,100894.48
2019-04-23T15:58:00.937Z,100883.19
2019-04-23T15:59:55.897Z,100888.06
2019-04-23T16:01:43.269Z,100881.13
2019-04-23T16:03:49.645Z,100891.56
2019-04-23T16:05:59.392Z,100892.06
2019-04-23T16:08:47.632Z,100894.36
2019-04-23T16:10:54.527Z,100881.23
2019-04-23T16:12:56.699Z,100885.39
2019-04-23T16:17:18.216Z,100889.25
2019-04-23T16:19:52.869Z,100884.41
2019-04-23T16:24:07.171Z,100875.66
2019-04-23T16:26:15.857Z,100881.17
2019-04-23T16:28:38.461Z,100867.77
2019-04-23T16:30:33.252Z,100880.83
2019-04-23T16:33:13.106Z,100878.27
2019-04-23T16:35:28.362Z,100877.41
2019-04-23T16:37:27.296Z,100880.95
2019-04-23T16:39:40.419Z,100875.70
2019-04-23T16:41:54.790Z,100876.42
2019-04-23T16:44:06.281Z,100873.14
2019-04-23T16:46:15.902Z,100878.23
2019-04-23T16:50:40.941Z,100872.38
2019-04-23T16:52:42.257Z,100872.87
2019-04-23T17:01:12.354Z,100883.16
2019-04-23T17:05:39.479Z,100880.95
2019-04-23T17:08:06.668Z,100881.66
2019-04-23T17:12:10.473Z,100881.13
2019-04-23T17:14:21.559Z,100880.39
2019-04-23T17:16:33.926Z,100880.28
2019-04-23T17:18:38.837Z,100882.52
2019-04-23T17:20:52.046Z,100884.59
2019-04-23T17:23:05.232Z,100890.27
2019-04-23T17:25:15.343Z,100886.07
2019-04-23T17:29:28.582Z,100894.08
2019-04-23T17:31:39.545Z,100891.90
2019-04-23T17:33:56.443Z,100888.64
2019-04-23T17:38:52.991Z,100889.34
2019-04-23T17:41:13.808Z,100894.11
2019-04-23T17:43:14.744Z,100892.33
2019-04-23T17:45:40.868Z,100895.53
2019-04-23T17:48:07.159Z,100897.88
2019-04-23T17:50:13.648Z,100893.73
2019-04-23T17:54:36.701Z,100896.20
2019-04-23T17:57:05.439Z,100894.39
2019-04-23T17:58:58.630Z,100895.16
2019-04-23T18:01:17.748Z,100899.31
2019-04-23T18:03:13.041Z,100897.63
2019-04-23T18:05:18.256Z,100901.55
2019-04-23T18:09:49.448Z,100902.95
2019-04-23T18:14:02.342Z,100904.48
2019-04-23T18:16:15.947Z,100903.73
2019-04-23T18:18:33.590Z,100911.26
2019-04-23T18:20:44.011Z,100907.85
2019-04-23T18:23:00.499Z,100906.71
2019-04-23T18:32:07.563Z,100918.05
2019-04-23T18:34:10.129Z,100911.68
2019-04-23T18:36:13.199Z,100910.08
2019-04-23T18:40:54.267Z,100907.91
2019-04-23T18:45:03.595Z,100915.18
2019-04-23T18:47:20.916Z,100911.37
2019-04-23T18:49:20.162Z,100910.75
2019-04-23T18:51:21.469Z,100907.43
2019-04-23T18:53:43.532Z,100913.02
2019-04-23T18:56:06.666Z,100910.89
2019-04-23T18:57:57.357Z,100909.72
2019-04-23T19:00:18.746Z,100908.09
2019-04-23T19:04:54.280Z,100901.84
2019-04-23T19:07:27.446Z,100910.56
2019-04-23T19:10:07.600Z,100908.52
2019-04-23T19:12:16.225Z,100910.23
2019-04-23T19:14:35.166Z,100908.33
2019-04-23T19:18:45.181Z,100905.91
2019-04-23T19:21:00.922Z,100901.17
2019-04-23T19:23:11.343Z,100898.69
2019-04-23T19:25:16.264Z,100897.77
2019-04-23T19:27:29.922Z,100902.80
2019-04-23T19:29:40.178Z,100905.91
2019-04-23T19:31:56.771Z,100898.51
2019-04-23T19:34:21.363Z,100901.76
2019-04-23T19:36:26.149Z,100896.84
2019-04-23T19:38:32.999Z,100905.38
2019-04-23T19:40:50.503Z,100900.06
2019-04-23T19:44:53.880Z,100895.59
2019-04-23T19:47:17.102Z,100897.77
2019-04-23T19:49:28.323Z,100893.78
2019-04-23T19:51:42.230Z,100895.78
2019-04-23T19:56:19.237Z,100891.70
2019-04-23T19:58:04.980Z,100892.07
2019-04-23T20:00:11.313Z,100892.84
2019-04-23T20:02:27.119Z,100890.11
2019-04-23T20:04:39.463Z,100895.98
2019-04-23T20:11:06.613Z,100890.58
2019-04-23T20:13:12.645Z,100889.34
2019-04-23T20:15:14.191Z,100886.39
2019-04-23T20:17:39.483Z,100882.41
2019-04-23T20:22:00.347Z,100883.45
2019-04-23T20:40:23.671Z,100875.60
2019-04-23T20:42:39.081Z,100871.81
2019-04-23T20:46:56.407Z,100868.77
2019-04-23T20:49:10.970Z,100872.35
2019-04-23T20:51:08.666Z,100874.08
2019-04-23T20:53:13.452Z,100867.70
2019-04-23T20:55:41.188Z,100878.42
2019-04-23T20:57:51.712Z,100876.33
2019-04-23T21:00:08.947Z,100873.88
2019-04-23T21:03:06.712Z,100876.53
2019-04-23T21:05:00.407Z,100878.42
2019-04-23T21:07:15.961Z,100874.41
2019-04-23T21:11:24.227Z,100871.39
2019-04-23T21:13:50.614Z,100871.11
2019-04-23T21:17:59.572Z,100875.52
2019-04-23T21:20:10.548Z,100867.93
2019-04-23T21:24:16.886Z,100877.21
2019-04-23T21:26:26.336Z,100878.25
2019-04-23T21:33:11.925Z,100865.47
2019-04-23T21:35:37.061Z,100862.12
2019-04-23T21:37:55.182Z,100864.70
2019-04-23T21:40:46.667Z,100866.10
2019-04-23T21:42:54.702Z,100853.08
2019-04-23T21:44:45.658Z,100860.85
2019-04-23T21:46:56.533Z,100858.94
2019-04-23T21:51:32.745Z,100851.26
2019-04-23T21:53:25.950Z,100856.50
2019-04-23T21:55:39.125Z,100849.45
2019-04-23T21:57:53.378Z,100851.89
2019-04-23T21:59:56.177Z,100857.30
2019-04-23T22:02:09.184Z,100856.98
2019-04-23T22:08:38.646Z,100852.44
2019-04-23T22:11:00.025Z,100849.73
2019-04-23T22:13:02.157Z,100849.59
2019-04-23T22:14:57.853Z,100852.06
2019-04-23T22:17:15.347Z,100854.80
2019-04-23T22:21:41.165Z,100842.32
2019-04-23T22:23:52.617Z,100843.44
2019-04-23T22:25:56.913Z,100843.83
2019-04-23T22:27:58.196Z,100841.95
2019-04-23T22:30:02.940Z,100847.89
2019-04-23T22:32:23.405Z,100842.22
2019-04-23T22:34:36.828Z,100838.98
2019-04-23T22:36:39.370Z,100834.51
2019-04-23T22:38:49.197Z,100838.16
2019-04-23T22:41:01.769Z,100832.36
2019-04-23T22:47:32.405Z,100832.73
2019-04-23T22:49:45.317Z,100839.86
2019-04-23T22:51:55.109Z,100830.22
2019-04-23T22:56:12.122Z,100833.76
2019-04-23T22:58:09.623Z,100826.63
2019-04-23T23:00:46.392Z,100828.17
2019-04-23T23:02:58.027Z,100824.94
2019-04-23T23:09:34.237Z,100826.94
2019-04-23T23:11:34.915Z,100826.13
2019-04-23T23:13:57.465Z,100825.47
2019-04-23T23:15:53.314Z,100816.53
2019-04-23T23:18:07.319Z,100827.05
2019-04-23T23:22:41.438Z,100823.22
2019-04-23T23:24:27.293Z,100825.79
2019-04-23T23:26:47.841Z,100821.97
2019-04-23T23:28:44.733Z,100819.17
2019-04-23T23:31:05.397Z,100819.73
2019-04-23T23:33:14.830Z,100817.41
2019-04-23T23:35:28.405Z,100817.08
2019-04-23T23:37:19.205Z,100810.17
2019-04-23T23:39:54.924Z,100817.77
2019-04-23T23:41:53.008Z,100812.77
2019-04-23T23:44:26.263Z,100815.44
2019-04-23T23:46:20.579Z,100808.33
2019-04-23T23:50:35.093Z,100810.12
2019-04-23T23:52:51.740Z,100805.41
2019-04-23T23:54:57.819Z,100807.26
